sensor_id;sensor_type;location;lat;lon;timestamp;temperature;humidity
40249;DHT22;25969;49.970;11.062;2023-03-22T05:01:32;9.20;99.90
40249;DHT22;25969;49.970;11.062;2023-03-22T05:11:44;9.40;99.90
40249;DHT22;25969;49.970;11.062;2023-03-22T05:22:05;9.50;99.90
40249;DHT22;25969;49.970;11.062;2023-03-22T05:32:19;9.60;99.90
40249;DHT22;25969;49.970;11.062;2023-03-22T05:42:27;9.60;99.90
40249;DHT22;25969;49.970;11.062;2023-03-22T05:52:28;9.50;99.90
40249;DHT22;25969;49.970;11.062;2023-03-22T06:03:01;9.50;99.90
40249;DHT22;25969;49.970;11.062;2023-03-22T06:13:10;9.60;99.90
40249;DHT22;25969;49.970;11.062;2023-03-22T06:23:11;9.90;99.90
40249;DHT22;25969;49.970;11.062;2023-03-22T06:33:15;10.00;99.90
40249;DHT22;25969;49.970;11.062;2023-03-22T06:43:20;10.10;99.90
40249;DHT22;25969;49.970;11.062;2023-03-22T06:53:23;10.00;99.90
40249;DHT22;25969;49.970;11.062;2023-03-22T07:03:24;10.20;99.90
40249;DHT22;25969;49.970;11.062;2023-03-22T07:13:29;10.50;99.90
40249;DHT22;25969;49.970;11.062;2023-03-22T07:23:35;10.60;99.90
40249;DHT22;25969;49.970;11.062;2023-03-22T07:33:42;11.00;99.90
40249;DHT22;25969;49.970;11.062;2023-03-22T07:43:44;11.70;99.90
40249;DHT22;25969;49.970;11.062;2023-03-22T07:53:49;12.10;99.90
40249;DHT22;25969;49.970;11.062;2023-03-22T08:03:50;12.20;99.90
40249;DHT22;25969;49.970;11.062;2023-03-22T08:14:05;12.80;99.90
40249;DHT22;25969;49.970;11.062;2023-03-22T08:24:08;11.80;99.90
40249;DHT22;25969;49.970;11.062;2023-03-22T08:34:29;12.00;99.90
40249;DHT22;25969;49.970;11.062;2023-03-22T08:44:31;12.20;99.90
40249;DHT22;25969;49.970;11.062;2023-03-22T08:54:32;12.40;99.90
40249;DHT22;25969;49.970;11.062;2023-03-22T09:04:39;12.80;99.10
40249;DHT22;25969;49.970;11.062;2023-03-22T09:14:40;14.10;96.30
40249;DHT22;25969;49.970;11.062;2023-03-22T09:24:41;14.00;96.50
40249;DHT22;25969;49.970;11.062;2023-03-22T09:34:43;14.10;95.10
40249;DHT22;25969;49.970;11.062;2023-03-22T09:44:45;15.30;91.40
40249;DHT22;25969;49.970;11.062;2023-03-22T09:54:53;18.00;85.00
40249;DHT22;25969;49.970;11.062;2023-03-22T10:05:11;21.80;62.20
40249;DHT22;25969;49.970;11.062;2023-03-22T10:25:21;20.30;58.10
40249;DHT22;25969;49.970;11.062;2023-03-22T10:35:23;18.20;62.50
40249;DHT22;25969;49.970;11.062;2023-03-22T10:45:25;23.20;51.90
40249;DHT22;25969;49.970;11.062;2023-03-22T10:55:26;22.00;52.00
40249;DHT22;25969;49.970;11.062;2023-03-22T11:05:28;21.60;52.50
40249;DHT22;25969;49.970;11.062;2023-03-22T11:15:31;22.30;53.10
40249;DHT22;25969;49.970;11.062;2023-03-22T11:25:34;23.00;50.40
40249;DHT22;25969;49.970;11.062;2023-03-22T11:35:38;21.30;51.30
40249;DHT22;25969;49.970;11.062;2023-03-22T11:45:43;23.30;47.80
40249;DHT22;25969;49.970;11.062;2023-03-22T11:55:47;23.00;47.60
40249;DHT22;25969;49.970;11.062;2023-03-22T12:05:49;20.20;51.60
40249;DHT22;25969;49.970;11.062;2023-03-22T12:15:54;21.40;51.50
40249;DHT22;25969;49.970;11.062;2023-03-22T12:25:59;21.00;51.10
40249;DHT22;25969;49.970;11.062;2023-03-22T12:36:03;19.80;54.50
40249;DHT22;25969;49.970;11.062;2023-03-22T12:46:06;20.60;53.80
40249;DHT22;25969;49.970;11.062;2023-03-22T12:56:17;24.40;45.10
40249;DHT22;25969;49.970;11.062;2023-03-22T13:06:54;20.80;52.00
40249;DHT22;25969;49.970;11.062;2023-03-22T13:16:58;20.00;52.40
40249;DHT22;25969;49.970;11.062;2023-03-22T13:27:00;21.50;52.00
40249;DHT22;25969;49.970;11.062;2023-03-22T13:37:01;21.70;50.10
40249;DHT22;25969;49.970;11.062;2023-03-22T13:47:07;23.00;49.20
40249;DHT22;25969;49.970;11.062;2023-03-22T13:57:39;21.40;49.80
40249;DHT22;25969;49.970;11.062;2023-03-22T14:07:55;18.60;54.40
40249;DHT22;25969;49.970;11.062;2023-03-22T14:18:16;20.60;50.50
40249;DHT22;25969;49.970;11.062;2023-03-22T14:28:21;17.30;56.20
40249;DHT22;25969;49.970;11.062;2023-03-22T14:38:33;17.00;57.00
40249;DHT22;25969;49.970;11.062;2023-03-22T14:48:36;17.20;56.30
40249;DHT22;25969;49.970;11.062;2023-03-22T14:58:38;18.30;54.60
40249;DHT22;25969;49.970;11.062;2023-03-22T15:08:39;17.30;56.90
40249;DHT22;25969;49.970;11.062;2023-03-22T15:18:40;16.60;57.70
40249;DHT22;25969;49.970;11.062;2023-03-22T15:28:43;16.90;58.20
40249;DHT22;25969;49.970;11.062;2023-03-22T15:38:46;18.30;56.70
40249;DHT22;25969;49.970;11.062;2023-03-22T15:49:33;18.90;52.80
40249;DHT22;25969;49.970;11.062;2023-03-22T15:59:50;18.20;52.90
40249;DHT22;25969;49.970;11.062;2023-03-22T16:09:52;16.50;56.70
40249;DHT22;25969;49.970;11.062;2023-03-22T16:19:53;16.10;58.20
40249;DHT22;25969;49.970;11.062;2023-03-22T16:29:54;15.80;59.80
40249;DHT22;25969;49.970;11.062;2023-03-22T16:39:55;15.60;62.50
40249;DHT22;25969;49.970;11.062;2023-03-22T16:49:55;15.20;64.30
40249;DHT22;25969;49.970;11.062;2023-03-22T16:59:56;15.00;64.60
40249;DHT22;25969;49.970;11.062;2023-03-22T17:10:02;14.70;67.40
40249;DHT22;25969;49.970;11.062;2023-03-22T17:20:04;14.20;67.60
40249;DHT22;25969;49.970;11.062;2023-03-22T17:30:06;14.00;68.50
40249;DHT22;25969;49.970;11.062;2023-03-22T17:40:09;13.60;71.30
40249;DHT22;25969;49.970;11.062;2023-03-22T17:50:10;13.50;71.70
40249;DHT22;25969;49.970;11.062;2023-03-22T18:00:12;13.70;70.00
40249;DHT22;25969;49.970;11.062;2023-03-22T18:10:14;14.00;67.80
40249;DHT22;25969;49.970;11.062;2023-03-22T18:20:17;13.80;71.00
40249;DHT22;25969;49.970;11.062;2023-03-22T18:30:23;14.50;68.70
40249;DHT22;25969;49.970;11.062;2023-03-22T18:40:25;14.10;67.20
40249;DHT22;25969;49.970;11.062;2023-03-22T18:50:29;14.20;66.10
40249;DHT22;25969;49.970;11.062;2023-03-22T19:00:30;14.40;65.30
40249;DHT22;25969;49.970;11.062;2023-03-22T19:10:30;14.30;65.20
40249;DHT22;25969;49.970;11.062;2023-03-22T19:20:31;14.10;66.50
40249;DHT22;25969;49.970;11.062;2023-03-22T19:30:33;14.00;68.20
40249;DHT22;25969;49.970;11.062;2023-03-22T19:40:33;14.00;66.70
40249;DHT22;25969;49.970;11.062;2023-03-22T19:50:34;14.10;67.70
40249;DHT22;25969;49.970;11.062;2023-03-22T20:00:36;14.10;66.60
40249;DHT22;25969;49.970;11.062;2023-03-22T20:10:37;14.10;66.70
40249;DHT22;25969;49.970;11.062;2023-03-22T20:20:37;13.90;68.40
40249;DHT22;25969;49.970;11.062;2023-03-22T20:30:38;13.80;70.10
40249;DHT22;25969;49.970;11.062;2023-03-22T20:40:39;13.70;69.00
40249;DHT22;25969;49.970;11.062;2023-03-22T20:50:42;13.90;67.90
40249;DHT22;25969;49.970;11.062;2023-03-22T21:00:44;13.80;69.80
40249;DHT22;25969;49.970;11.062;2023-03-22T21:10:45;14.00;67.90
40249;DHT22;25969;49.970;11.062;2023-03-22T21:20:47;14.00;67.10
40249;DHT22;25969;49.970;11.062;2023-03-22T21:30:47;13.90;67.20
40249;DHT22;25969;49.970;11.062;2023-03-22T21:40:56;14.00;66.90
40249;DHT22;25969;49.970;11.062;2023-03-22T21:50:57;14.10;65.30
40249;DHT22;25969;49.970;11.062;2023-03-22T22:00:59;14.10;66.30
40249;DHT22;25969;49.970;11.062;2023-03-22T22:11:02;14.20;65.00
40249;DHT22;25969;49.970;11.062;2023-03-22T22:21:07;13.90;67.50
40249;DHT22;25969;49.970;11.062;2023-03-22T22:31:16;14.10;64.90
40249;DHT22;25969;49.970;11.062;2023-03-22T22:41:23;13.80;65.50
40249;DHT22;25969;49.970;11.062;2023-03-22T22:51:24;14.10;64.20
